Mount Pleasant, North Carolina
Current Conditions -  °F | °C
As of 7:50 AM on Thursday 18 Dec 2014 (Local Time) from KJQF Reporting Station
Clear Clear  
Wind Chill: 34°   Ceiling: Unl
Heat Index: 34°   Visibility: 10mi
Dew Point: 30°   Wind: 0mph
Humidity: 87%   Direction: NA
Pressure: 30.21"   Gusts: NA
Location:  35.4°N, 80.44°W
Report Text: KJQF 181250Z 00000KT 10SM CLR 01/M01 A3021
Loading
Personal Weather Stations






























Interactive Weather Map New forecast layout! Learn more

10-Day Weather Forecast

Advertisements
Track Severe Weather on mobile